createdAt,value
2023-05-30T00:08:53.394Z,19.12
2023-05-30T00:18:53.263Z,23.31
2023-05-30T00:28:54.926Z,22
2023-05-30T00:39:01.371Z,19.26
2023-05-30T00:49:01.130Z,24.32
2023-05-30T00:59:07.326Z,24.98
2023-05-30T01:09:07.409Z,24.74
2023-05-30T01:19:17.108Z,24.09
2023-05-30T01:29:29.102Z,20.53
2023-05-30T01:39:29.909Z,20.28
2023-05-30T01:49:32.802Z,23.38
2023-05-30T01:59:32.087Z,23.48
2023-05-30T02:09:36.951Z,29.15
2023-05-30T02:19:41.936Z,33.65
2023-05-30T02:29:45.369Z,36.57
2023-05-30T02:39:46.972Z,31.29
2023-05-30T02:49:47.312Z,34.16
2023-05-30T02:59:48.850Z,35.7
2023-05-30T03:09:50.138Z,39.34
2023-05-30T03:20:03.048Z,38.46
2023-05-30T03:30:04.618Z,36.1
2023-05-30T03:40:05.812Z,37.57
2023-05-30T03:50:14.713Z,38.91
2023-05-30T04:00:23.597Z,40.43
2023-05-30T04:10:32.016Z,46.9
2023-05-30T04:20:40.780Z,52.98
2023-05-30T04:30:49.713Z,45.38
2023-05-30T04:41:03.018Z,36.49
2023-05-30T04:51:07.844Z,38.05
2023-05-30T05:01:16.679Z,35.77
2023-05-30T05:11:25.643Z,37.76
2023-05-30T05:21:35.682Z,37.09
2023-05-30T05:31:34.681Z,33.54
2023-05-30T05:41:43.519Z,30.56
2023-05-30T05:51:52.387Z,28.73
2023-05-30T06:02:02.316Z,29.36
2023-05-30T06:12:01.445Z,32.72
2023-05-30T06:22:09.899Z,27.1
2023-05-30T06:32:18.127Z,28.9
2023-05-30T06:42:30.050Z,28.62
2023-05-30T06:52:29.066Z,28.61
2023-05-30T07:02:38.242Z,32.51
2023-05-30T07:12:47.176Z,24.18
2023-05-30T07:22:56.139Z,25.24
2023-05-30T07:33:05.140Z,28.59
2023-05-30T07:43:14.163Z,22.61
2023-05-30T07:53:23.113Z,23.59
2023-05-30T08:03:32.106Z,24.7
2023-05-30T08:13:41.715Z,23.31
2023-05-30T08:23:41.297Z,29.41
2023-05-30T08:33:50.434Z,20.44
2023-05-30T08:43:59.352Z,22.69
2023-05-30T08:54:08.367Z,13.17
2023-05-30T09:04:17.221Z,16.59
2023-05-30T09:14:26.000Z,16.96
2023-05-30T09:24:34.833Z,13.52
2023-05-30T09:34:43.701Z,13.16
2023-05-30T09:44:52.668Z,15.26
2023-05-30T09:55:01.530Z,10.34
2023-05-30T10:05:10.546Z,14.81
2023-05-30T10:15:20.353Z,13.33
2023-05-30T10:25:28.808Z,11.69
2023-05-30T10:35:37.748Z,12.38
2023-05-30T10:45:46.548Z,11.75
2023-05-30T10:55:55.508Z,11.43
2023-05-30T11:05:58.750Z,14.2
2023-05-30T11:16:07.471Z,11.13
2023-05-30T11:26:16.234Z,10.38
2023-05-30T11:36:25.821Z,11.1
2023-05-30T11:46:27.929Z,11.12
2023-05-30T11:56:36.827Z,15.02
2023-05-30T12:06:45.718Z,10.15
2023-05-30T12:16:54.817Z,9.97
2023-05-30T12:27:05.006Z,9.75
2023-05-30T12:37:04.175Z,9.92
2023-05-30T12:47:07.071Z,10.08
2023-05-30T12:57:06.317Z,10.05
2023-05-30T13:07:19.537Z,13.97
2023-05-30T13:17:23.828Z,13.98
2023-05-30T13:27:23.043Z,11.35
2023-05-30T13:37:33.984Z,11.43
2023-05-30T13:47:33.453Z,11.61
2023-05-30T13:57:34.735Z,11.25
2023-05-30T14:07:37.349Z,12.23
2023-05-30T14:17:41.373Z,11.54
2023-05-30T14:27:42.904Z,12.49
2023-05-30T14:37:43.969Z,9.53
2023-05-30T14:47:56.275Z,12.9
2023-05-30T14:57:56.420Z,9.61
2023-05-30T15:07:57.885Z,10.79
2023-05-30T15:17:57.892Z,10.1
2023-05-30T15:28:01.457Z,9.12
2023-05-30T15:38:03.922Z,9.51
2023-05-30T15:48:07.484Z,40.82
2023-05-30T15:58:07.776Z,11.95
2023-05-30T16:08:11.253Z,8.67
2023-05-30T16:18:11.903Z,9.54
2023-05-30T16:28:19.895Z,9.9
2023-05-30T16:38:30.319Z,12.92
2023-05-30T16:48:30.781Z,11.42
2023-05-30T16:58:30.283Z,10.43
2023-05-30T17:08:33.019Z,12.97
2023-05-30T17:18:35.913Z,10.66
2023-05-30T17:28:38.388Z,11.79
2023-05-30T17:38:37.205Z,13.53
2023-05-30T17:48:46.127Z,11.21
2023-05-30T17:58:54.957Z,11.02
2023-05-30T18:09:07.190Z,13.77
2023-05-30T18:19:06.640Z,12.99
2023-05-30T18:29:18.513Z,13.92
2023-05-30T18:39:12.512Z,12.57
2023-05-30T18:49:11.806Z,11.82
2023-05-30T18:59:16.860Z,15.76
2023-05-30T19:09:16.878Z,11.34
2023-05-30T19:19:25.750Z,13.5
2023-05-30T19:29:34.696Z,12.64
2023-05-30T19:39:42.978Z,15.09
2023-05-30T19:49:51.729Z,14.15
2023-05-30T20:00:00.686Z,17.59
2023-05-30T20:10:09.576Z,16.82
2023-05-30T20:20:18.790Z,16.83
2023-05-30T20:30:27.606Z,11.54
2023-05-30T20:40:36.436Z,13.28
2023-05-30T20:50:45.188Z,13.63
2023-05-30T21:00:53.456Z,14.03
2023-05-30T21:11:02.447Z,18.65
2023-05-30T21:21:11.039Z,16.3
2023-05-30T21:31:20.780Z,16.63
2023-05-30T21:41:29.603Z,18.54
2023-05-30T21:51:38.372Z,18.03
2023-05-30T22:01:47.110Z,20.54
2023-05-30T22:11:55.913Z,17.27
2023-05-30T22:22:04.747Z,14.7
2023-05-30T22:32:11.721Z,14.34
2023-05-30T22:42:20.140Z,14.24
2023-05-30T22:52:29.005Z,18.46
2023-05-30T23:02:37.483Z,17.62
2023-05-30T23:12:46.072Z,12.31
2023-05-30T23:44:26.651Z,17.18
2023-05-30T23:54:35.000Z,18.4
